sensor_id;sensor_type;location;lat;lon;timestamp;pressure;altitude;pressure_sealevel;temperature;humidity
73103;BME280;61294;65.988;29.172;2023-12-20T00:01:35;93745.34;;;-5.70;100.00
73103;BME280;61294;65.988;29.172;2023-12-20T00:04:02;93715.63;;;-5.79;100.00
73103;BME280;61294;65.988;29.172;2023-12-20T00:06:29;93740.19;;;-5.69;100.00
73103;BME280;61294;65.988;29.172;2023-12-20T00:08:55;93706.41;;;-5.86;100.00
73103;BME280;61294;65.988;29.172;2023-12-20T00:11:21;93752.13;;;-5.68;100.00
73103;BME280;61294;65.988;29.172;2023-12-20T00:13:46;93741.03;;;-5.67;100.00
73103;BME280;61294;65.988;29.172;2023-12-20T00:16:12;93694.59;;;-5.94;100.00
73103;BME280;61294;65.988;29.172;2023-12-20T00:18:38;93734.34;;;-5.74;100.00
73103;BME280;61294;65.988;29.172;2023-12-20T00:21:04;93753.00;;;-5.69;100.00
73103;BME280;61294;65.988;29.172;2023-12-20T00:23:29;93754.75;;;-5.69;100.00
73103;BME280;61294;65.988;29.172;2023-12-20T00:25:55;93751.34;;;-5.72;100.00
73103;BME280;61294;65.988;29.172;2023-12-20T00:28:21;93759.94;;;-5.73;100.00
73103;BME280;61294;65.988;29.172;2023-12-20T00:30:48;93756.53;;;-5.75;100.00
73103;BME280;61294;65.988;29.172;2023-12-20T00:33:14;93727.06;;;-5.94;100.00
73103;BME280;61294;65.988;29.172;2023-12-20T00:35:40;93753.25;;;-5.80;100.00
73103;BME280;61294;65.988;29.172;2023-12-20T00:38:05;93769.47;;;-5.79;100.00
73103;BME280;61294;65.988;29.172;2023-12-20T00:40:32;93758.41;;;-5.83;100.00
73103;BME280;61294;65.988;29.172;2023-12-20T00:42:59;93730.63;;;-6.01;100.00
73103;BME280;61294;65.988;29.172;2023-12-20T00:45:24;93772.06;;;-5.81;100.00
73103;BME280;61294;65.988;29.172;2023-12-20T00:47:50;93766.06;;;-5.80;100.00
73103;BME280;61294;65.988;29.172;2023-12-20T00:50:17;93756.84;;;-5.90;100.00
73103;BME280;61294;65.988;29.172;2023-12-20T00:52:42;93775.41;;;-5.79;100.00
73103;BME280;61294;65.988;29.172;2023-12-20T00:55:08;93765.38;;;-5.88;100.00
73103;BME280;61294;65.988;29.172;2023-12-20T00:57:34;93781.41;;;-5.78;100.00
73103;BME280;61294;65.988;29.172;2023-12-20T01:00:00;93781.34;;;-5.75;100.00
73103;BME280;61294;65.988;29.172;2023-12-20T01:02:26;93799.31;;;-5.77;100.00
73103;BME280;61294;65.988;29.172;2023-12-20T01:04:52;93803.56;;;-5.76;100.00
73103;BME280;61294;65.988;29.172;2023-12-20T01:07:17;93798.47;;;-5.79;100.00
73103;BME280;61294;65.988;29.172;2023-12-20T01:09:43;93811.31;;;-5.80;100.00
73103;BME280;61294;65.988;29.172;2023-12-20T01:12:09;93801.03;;;-5.79;100.00
73103;BME280;61294;65.988;29.172;2023-12-20T01:14:35;93808.69;;;-5.76;100.00
73103;BME280;61294;65.988;29.172;2023-12-20T01:17:01;93789.31;;;-5.91;100.00
73103;BME280;61294;65.988;29.172;2023-12-20T01:19:27;93814.75;;;-5.80;100.00
73103;BME280;61294;65.988;29.172;2023-12-20T01:21:54;93815.59;;;-5.79;100.00
73103;BME280;61294;65.988;29.172;2023-12-20T01:24:21;93814.84;;;-5.86;100.00
73103;BME280;61294;65.988;29.172;2023-12-20T01:26:47;93834.44;;;-5.83;100.00
73103;BME280;61294;65.988;29.172;2023-12-20T01:29:12;93828.53;;;-5.85;100.00
73103;BME280;61294;65.988;29.172;2023-12-20T01:31:40;93837.88;;;-5.84;100.00
73103;BME280;61294;65.988;29.172;2023-12-20T01:34:06;93837.94;;;-5.87;100.00
73103;BME280;61294;65.988;29.172;2023-12-20T01:36:32;93830.22;;;-5.86;100.00
73103;BME280;61294;65.988;29.172;2023-12-20T01:38:58;93842.16;;;-5.85;100.00
73103;BME280;61294;65.988;29.172;2023-12-20T01:41:23;93842.25;;;-5.90;100.00
73103;BME280;61294;65.988;29.172;2023-12-20T01:43:49;93851.66;;;-5.90;100.00
73103;BME280;61294;65.988;29.172;2023-12-20T01:46:16;93859.38;;;-5.92;100.00
73103;BME280;61294;65.988;29.172;2023-12-20T01:48:42;93855.94;;;-5.91;100.00
73103;BME280;61294;65.988;29.172;2023-12-20T01:51:08;93853.41;;;-5.92;100.00
73103;BME280;61294;65.988;29.172;2023-12-20T01:53:35;93859.34;;;-5.90;100.00
73103;BME280;61294;65.988;29.172;2023-12-20T01:56:01;93853.34;;;-5.89;100.00
73103;BME280;61294;65.988;29.172;2023-12-20T01:58:27;93864.47;;;-5.88;100.00
73103;BME280;61294;65.988;29.172;2023-12-20T02:00:54;93867.88;;;-5.90;100.00
73103;BME280;61294;65.988;29.172;2023-12-20T02:03:21;93862.84;;;-5.94;100.00
73103;BME280;61294;65.988;29.172;2023-12-20T02:05:47;93876.63;;;-5.98;100.00
73103;BME280;61294;65.988;29.172;2023-12-20T02:08:13;93878.22;;;-5.96;100.00
73103;BME280;61294;65.988;29.172;2023-12-20T02:10:39;93873.97;;;-5.95;100.00
73103;BME280;61294;65.988;29.172;2023-12-20T02:13:06;93846.97;;;-6.13;100.00
73103;BME280;61294;65.988;29.172;2023-12-20T02:15:32;93851.16;;;-6.08;100.00
73103;BME280;61294;65.988;29.172;2023-12-20T02:17:58;93879.94;;;-5.96;100.00
73103;BME280;61294;65.988;29.172;2023-12-20T02:20:24;93884.22;;;-5.95;100.00
73103;BME280;61294;65.988;29.172;2023-12-20T02:22:50;93890.16;;;-5.95;100.00
73103;BME280;61294;65.988;29.172;2023-12-20T02:25:16;93892.72;;;-5.95;100.00
73103;BME280;61294;65.988;29.172;2023-12-20T02:27:41;93866.59;;;-6.12;100.00
73103;BME280;61294;65.988;29.172;2023-12-20T02:30:08;93902.91;;;-5.92;100.00
73103;BME280;61294;65.988;29.172;2023-12-20T02:32:34;93904.63;;;-5.91;100.00
73103;BME280;61294;65.988;29.172;2023-12-20T02:35:00;93905.66;;;-5.99;100.00
73103;BME280;61294;65.988;29.172;2023-12-20T02:37:26;93927.69;;;-5.91;100.00
73103;BME280;61294;65.988;29.172;2023-12-20T02:39:51;93913.31;;;-5.98;100.00
73103;BME280;61294;65.988;29.172;2023-12-20T02:42:17;93932.00;;;-5.93;100.00
73103;BME280;61294;65.988;29.172;2023-12-20T02:44:43;93931.97;;;-5.91;100.00
73103;BME280;61294;65.988;29.172;2023-12-20T02:47:09;93946.44;;;-5.87;100.00
73103;BME280;61294;65.988;29.172;2023-12-20T02:49:35;93937.91;;;-5.89;100.00
73103;BME280;61294;65.988;29.172;2023-12-20T02:52:00;93952.38;;;-5.86;100.00
73103;BME280;61294;65.988;29.172;2023-12-20T02:54:26;93947.25;;;-5.86;100.00
73103;BME280;61294;65.988;29.172;2023-12-20T02:56:52;93960.88;;;-5.84;100.00
73103;BME280;61294;65.988;29.172;2023-12-20T02:59:18;93962.56;;;-5.83;100.00
73103;BME280;61294;65.988;29.172;2023-12-20T03:01:45;93942.34;;;-5.97;100.00
73103;BME280;61294;65.988;29.172;2023-12-20T03:04:12;93943.25;;;-6.01;100.00
73103;BME280;61294;65.988;29.172;2023-12-20T03:06:38;93961.03;;;-5.94;100.00
73103;BME280;61294;65.988;29.172;2023-12-20T03:09:04;93980.56;;;-5.86;100.00
73103;BME280;61294;65.988;29.172;2023-12-20T03:11:30;93988.22;;;-5.85;100.00
73103;BME280;61294;65.988;29.172;2023-12-20T03:13:56;93987.41;;;-5.85;100.00
73103;BME280;61294;65.988;29.172;2023-12-20T03:16:22;93972.16;;;-5.95;100.00
73103;BME280;61294;65.988;29.172;2023-12-20T03:18:48;93977.28;;;-5.95;100.00
73103;BME280;61294;65.988;29.172;2023-12-20T03:21:14;93995.13;;;-5.88;100.00
73103;BME280;61294;65.988;29.172;2023-12-20T03:23:40;93993.41;;;-5.88;100.00
73103;BME280;61294;65.988;29.172;2023-12-20T03:26:09;93997.69;;;-5.90;100.00
73103;BME280;61294;65.988;29.172;2023-12-20T03:28:38;94006.22;;;-5.88;100.00
73103;BME280;61294;65.988;29.172;2023-12-20T03:31:04;93995.25;;;-5.96;100.00
73103;BME280;61294;65.988;29.172;2023-12-20T03:33:30;93996.03;;;-5.91;100.00
73103;BME280;61294;65.988;29.172;2023-12-20T03:35:55;94021.50;;;-5.82;100.00
73103;BME280;61294;65.988;29.172;2023-12-20T03:38:22;94030.91;;;-5.82;100.00
73103;BME280;61294;65.988;29.172;2023-12-20T03:40:51;94016.56;;;-5.94;100.00
73103;BME280;61294;65.988;29.172;2023-12-20T03:43:17;94027.66;;;-5.94;100.00
73103;BME280;61294;65.988;29.172;2023-12-20T03:45:43;94031.94;;;-5.94;100.00
73103;BME280;61294;65.988;29.172;2023-12-20T03:48:09;94040.53;;;-5.97;100.00
73103;BME280;61294;65.988;29.172;2023-12-20T03:50:35;94041.44;;;-5.99;100.00
73103;BME280;61294;65.988;29.172;2023-12-20T03:53:01;94046.63;;;-6.02;100.00
73103;BME280;61294;65.988;29.172;2023-12-20T03:55:27;94050.94;;;-6.08;100.00
73103;BME280;61294;65.988;29.172;2023-12-20T03:57:56;94023.00;;;-6.25;100.00
73103;BME280;61294;65.988;29.172;2023-12-20T04:00:22;94053.59;;;-6.12;100.00
73103;BME280;61294;65.988;29.172;2023-12-20T04:02:47;94058.75;;;-6.15;100.00
73103;BME280;61294;65.988;29.172;2023-12-20T04:05:13;94068.13;;;-6.16;100.00
73103;BME280;61294;65.988;29.172;2023-12-20T04:07:39;94068.16;;;-6.17;100.00
73103;BME280;61294;65.988;29.172;2023-12-20T04:10:05;94067.34;;;-6.19;100.00
73103;BME280;61294;65.988;29.172;2023-12-20T04:12:31;94075.91;;;-6.22;100.00
73103;BME280;61294;65.988;29.172;2023-12-20T04:14:57;94081.94;;;-6.26;100.00
73103;BME280;61294;65.988;29.172;2023-12-20T04:17:23;94084.47;;;-6.25;100.00
73103;BME280;61294;65.988;29.172;2023-12-20T04:19:49;94041.31;;;-6.52;100.00
73103;BME280;61294;65.988;29.172;2023-12-20T04:22:16;94096.47;;;-6.27;100.00
73103;BME280;61294;65.988;29.172;2023-12-20T04:24:42;94099.88;;;-6.26;100.00
73103;BME280;61294;65.988;29.172;2023-12-20T04:27:08;94066.03;;;-6.50;100.00
73103;BME280;61294;65.988;29.172;2023-12-20T04:29:34;94108.47;;;-6.32;100.00
73103;BME280;61294;65.988;29.172;2023-12-20T04:32:00;94096.69;;;-6.44;100.00
73103;BME280;61294;65.988;29.172;2023-12-20T04:34:26;94108.50;;;-6.33;100.00
73103;BME280;61294;65.988;29.172;2023-12-20T04:36:52;94114.50;;;-6.36;100.00
73103;BME280;61294;65.988;29.172;2023-12-20T04:39:18;94120.47;;;-6.35;100.00
73103;BME280;61294;65.988;29.172;2023-12-20T04:41:44;94129.03;;;-6.36;100.00
73103;BME280;61294;65.988;29.172;2023-12-20T04:44:10;94117.19;;;-6.45;100.00
73103;BME280;61294;65.988;29.172;2023-12-20T04:46:36;94127.38;;;-6.42;100.00
73103;BME280;61294;65.988;29.172;2023-12-20T04:49:02;94129.09;;;-6.44;100.00
73103;BME280;61294;65.988;29.172;2023-12-20T04:51:28;94141.97;;;-6.50;100.00
73103;BME280;61294;65.988;29.172;2023-12-20T04:53:54;94119.91;;;-6.59;100.00
73103;BME280;61294;65.988;29.172;2023-12-20T04:56:20;94143.69;;;-6.49;100.00
73103;BME280;61294;65.988;29.172;2023-12-20T04:58:45;94140.28;;;-6.53;100.00
73103;BME280;61294;65.988;29.172;2023-12-20T05:01:12;94141.19;;;-6.57;100.00
73103;BME280;61294;65.988;29.172;2023-12-20T05:03:38;94130.25;;;-6.70;100.00
73103;BME280;61294;65.988;29.172;2023-12-20T05:06:04;94155.72;;;-6.59;100.00
73103;BME280;61294;65.988;29.172;2023-12-20T05:08:30;94144.78;;;-6.72;100.00
73103;BME280;61294;65.988;29.172;2023-12-20T05:10:56;94166.06;;;-6.67;100.00
73103;BME280;61294;65.988;29.172;2023-12-20T05:13:22;94131.28;;;-6.86;100.00
73103;BME280;61294;65.988;29.172;2023-12-20T05:15:47;94184.78;;;-6.65;100.00
73103;BME280;61294;65.988;29.172;2023-12-20T05:18:14;94174.59;;;-6.68;100.00
73103;BME280;61294;65.988;29.172;2023-12-20T05:20:40;94164.44;;;-6.77;100.00
73103;BME280;61294;65.988;29.172;2023-12-20T05:23:06;94184.03;;;-6.74;100.00
73103;BME280;61294;65.988;29.172;2023-12-20T05:25:32;94193.41;;;-6.73;100.00
73103;BME280;61294;65.988;29.172;2023-12-20T05:27:57;94189.19;;;-6.78;100.00
73103;BME280;61294;65.988;29.172;2023-12-20T05:30:23;94191.78;;;-6.81;100.00
73103;BME280;61294;65.988;29.172;2023-12-20T05:32:49;94175.75;;;-6.98;100.00
73103;BME280;61294;65.988;29.172;2023-12-20T05:35:15;94203.69;;;-6.77;100.00
73103;BME280;61294;65.988;29.172;2023-12-20T05:37:41;94217.31;;;-6.74;100.00
73103;BME280;61294;65.988;29.172;2023-12-20T05:40:08;94171.44;;;-6.95;100.00
73103;BME280;61294;65.988;29.172;2023-12-20T05:42:36;94225.84;;;-6.74;100.00
73103;BME280;61294;65.988;29.172;2023-12-20T05:45:03;94218.16;;;-6.72;100.00
73103;BME280;61294;65.988;29.172;2023-12-20T05:47:29;94221.56;;;-6.72;100.00
73103;BME280;61294;65.988;29.172;2023-12-20T05:49:55;94236.91;;;-6.73;100.00
73103;BME280;61294;65.988;29.172;2023-12-20T05:52:21;94210.66;;;-6.92;100.00
73103;BME280;61294;65.988;29.172;2023-12-20T05:54:47;94250.56;;;-6.74;100.00
73103;BME280;61294;65.988;29.172;2023-12-20T05:57:13;94242.03;;;-6.72;100.00
73103;BME280;61294;65.988;29.172;2023-12-20T05:59:39;94249.72;;;-6.73;100.00
73103;BME280;61294;65.988;29.172;2023-12-20T06:02:05;94270.19;;;-6.75;100.00
73103;BME280;61294;65.988;29.172;2023-12-20T06:04:31;94269.38;;;-6.79;100.00
73103;BME280;61294;65.988;29.172;2023-12-20T06:06:57;94265.97;;;-6.79;100.00
73103;BME280;61294;65.988;29.172;2023-12-20T06:09:23;94227.84;;;-7.13;100.00
73103;BME280;61294;65.988;29.172;2023-12-20T06:11:49;94282.25;;;-6.88;100.00
73103;BME280;61294;65.988;29.172;2023-12-20T06:14:15;94284.81;;;-6.89;100.00
73103;BME280;61294;65.988;29.172;2023-12-20T06:16:41;94246.59;;;-7.09;100.00
73103;BME280;61294;65.988;29.172;2023-12-20T06:19:06;94288.22;;;-6.90;100.00
73103;BME280;61294;65.988;29.172;2023-12-20T06:21:32;94267.84;;;-6.98;100.00
73103;BME280;61294;65.988;29.172;2023-12-20T06:24:01;94290.78;;;-6.89;100.00
73103;BME280;61294;65.988;29.172;2023-12-20T06:26:27;94249.19;;;-7.17;100.00
73103;BME280;61294;65.988;29.172;2023-12-20T06:28:52;94299.31;;;-6.93;100.00
73103;BME280;61294;65.988;29.172;2023-12-20T06:31:18;94288.22;;;-6.90;100.00
73103;BME280;61294;65.988;29.172;2023-12-20T06:33:44;94265.41;;;-7.17;100.00
73103;BME280;61294;65.988;29.172;2023-12-20T06:36:13;94319.00;;;-7.03;100.00
73103;BME280;61294;65.988;29.172;2023-12-20T06:38:39;94235.72;;;-7.44;100.00
73103;BME280;61294;65.988;29.172;2023-12-20T06:41:05;94319.88;;;-7.02;100.00
73103;BME280;61294;65.988;29.172;2023-12-20T06:43:31;94306.25;;;-7.09;100.00
73103;BME280;61294;65.988;29.172;2023-12-20T06:46:00;94319.06;;;-7.11;100.00
73103;BME280;61294;65.988;29.172;2023-12-20T06:48:26;94292.72;;;-7.23;100.00
73103;BME280;61294;65.988;29.172;2023-12-20T06:50:52;94325.06;;;-7.18;100.00
73103;BME280;61294;65.988;29.172;2023-12-20T06:53:18;94325.97;;;-7.25;100.00
73103;BME280;61294;65.988;29.172;2023-12-20T06:55:44;94336.19;;;-7.30;100.00
73103;BME280;61294;65.988;29.172;2023-12-20T06:58:10;94340.50;;;-7.32;100.00
73103;BME280;61294;65.988;29.172;2023-12-20T07:00:35;94343.91;;;-7.34;100.00
73103;BME280;61294;65.988;29.172;2023-12-20T07:03:01;94324.41;;;-7.57;100.00
73103;BME280;61294;65.988;29.172;2023-12-20T07:05:27;94314.22;;;-7.61;100.00
73103;BME280;61294;65.988;29.172;2023-12-20T07:07:53;94347.38;;;-7.46;100.00
73103;BME280;61294;65.988;29.172;2023-12-20T07:10:19;94352.50;;;-7.46;100.00
73103;BME280;61294;65.988;29.172;2023-12-20T07:12:45;94355.88;;;-7.44;100.00
73103;BME280;61294;65.988;29.172;2023-12-20T07:15:11;94372.03;;;-7.36;100.00
73103;BME280;61294;65.988;29.172;2023-12-20T07:17:37;94338.91;;;-7.60;100.00
73103;BME280;61294;65.988;29.172;2023-12-20T07:20:04;94387.44;;;-7.45;100.00
73103;BME280;61294;65.988;29.172;2023-12-20T07:22:32;94388.31;;;-7.51;100.00
73103;BME280;61294;65.988;29.172;2023-12-20T07:24:58;94388.28;;;-7.49;100.00
73103;BME280;61294;65.988;29.172;2023-12-20T07:27:24;94402.78;;;-7.54;100.00
73103;BME280;61294;65.988;29.172;2023-12-20T07:29:51;94416.44;;;-7.54;100.00
73103;BME280;61294;65.988;29.172;2023-12-20T07:32:17;94400.25;;;-7.62;100.00
73103;BME280;61294;65.988;29.172;2023-12-20T07:34:42;94416.41;;;-7.55;100.00
73103;BME280;61294;65.988;29.172;2023-12-20T07:37:08;94390.91;;;-7.71;100.00
73103;BME280;61294;65.988;29.172;2023-12-20T07:39:36;94378.16;;;-7.78;100.00
73103;BME280;61294;65.988;29.172;2023-12-20T07:42:01;94411.34;;;-7.66;100.00
73103;BME280;61294;65.988;29.172;2023-12-20T07:44:27;94422.41;;;-7.56;100.00
73103;BME280;61294;65.988;29.172;2023-12-20T07:46:53;94427.50;;;-7.64;100.00
73103;BME280;61294;65.988;29.172;2023-12-20T07:49:19;94428.38;;;-7.70;100.00
73103;BME280;61294;65.988;29.172;2023-12-20T07:51:45;94435.22;;;-7.76;100.00
73103;BME280;61294;65.988;29.172;2023-12-20T07:54:11;94465.84;;;-7.80;100.00
73103;BME280;61294;65.988;29.172;2023-12-20T07:56:36;94454.78;;;-7.77;100.00
73103;BME280;61294;65.988;29.172;2023-12-20T07:59:02;94470.97;;;-7.81;100.00
73103;BME280;61294;65.988;29.172;2023-12-20T08:01:28;94391.84;;;-8.21;100.00
73103;BME280;61294;65.988;29.172;2023-12-20T08:03:54;94465.03;;;-7.82;100.00
73103;BME280;61294;65.988;29.172;2023-12-20T08:06:21;94463.34;;;-7.96;100.00
73103;BME280;61294;65.988;29.172;2023-12-20T08:08:47;94471.81;;;-7.87;100.00
73103;BME280;61294;65.988;29.172;2023-12-20T08:11:12;94484.59;;;-7.85;100.00
73103;BME280;61294;65.988;29.172;2023-12-20T08:13:38;94472.72;;;-7.91;100.00
73103;BME280;61294;65.988;29.172;2023-12-20T08:16:04;94496.53;;;-7.72;100.00
73103;BME280;61294;65.988;29.172;2023-12-20T08:18:30;94451.41;;;-7.88;100.00
73103;BME280;61294;65.988;29.172;2023-12-20T08:20:56;94427.59;;;-8.18;100.00
73103;BME280;61294;65.988;29.172;2023-12-20T08:23:21;94461.63;;;-7.99;100.00
73103;BME280;61294;65.988;29.172;2023-12-20T08:25:47;94516.13;;;-7.88;100.00
73103;BME280;61294;65.988;29.172;2023-12-20T08:28:13;94509.31;;;-7.86;100.00
73103;BME280;61294;65.988;29.172;2023-12-20T08:30:39;94505.03;;;-7.85;100.00
73103;BME280;61294;65.988;29.172;2023-12-20T08:33:06;94522.94;;;-7.84;100.00
73103;BME280;61294;65.988;29.172;2023-12-20T08:35:36;94522.91;;;-7.88;100.00
73103;BME280;61294;65.988;29.172;2023-12-20T08:38:02;94530.56;;;-7.87;100.00
73103;BME280;61294;65.988;29.172;2023-12-20T08:40:29;94539.13;;;-7.89;100.00
73103;BME280;61294;65.988;29.172;2023-12-20T08:42:55;94533.97;;;-7.94;100.00
73103;BME280;61294;65.988;29.172;2023-12-20T08:45:21;94537.38;;;-8.00;100.00
73103;BME280;61294;65.988;29.172;2023-12-20T08:47:47;94563.78;;;-8.05;100.00
73103;BME280;61294;65.988;29.172;2023-12-20T08:50:13;94541.63;;;-8.22;100.00
73103;BME280;61294;65.988;29.172;2023-12-20T08:52:39;94540.75;;;-8.28;100.00
73103;BME280;61294;65.988;29.172;2023-12-20T08:55:05;94566.31;;;-8.13;100.00
73103;BME280;61294;65.988;29.172;2023-12-20T08:57:31;94553.53;;;-8.22;100.00
73103;BME280;61294;65.988;29.172;2023-12-20T08:59:57;94550.13;;;-8.29;100.00
73103;BME280;61294;65.988;29.172;2023-12-20T09:02:23;94556.94;;;-8.20;100.00
73103;BME280;61294;65.988;29.172;2023-12-20T09:04:49;94562.06;;;-8.20;100.00
73103;BME280;61294;65.988;29.172;2023-12-20T09:07:25;94588.44;;;-8.18;100.00
73103;BME280;61294;65.988;29.172;2023-12-20T09:09:52;94586.75;;;-8.11;100.00
73103;BME280;61294;65.988;29.172;2023-12-20T09:12:20;94595.25;;;-8.17;100.00
73103;BME280;61294;65.988;29.172;2023-12-20T09:14:47;94600.38;;;-8.16;100.00
73103;BME280;61294;65.988;29.172;2023-12-20T09:17:14;94596.09;;;-8.21;100.00
73103;BME280;61294;65.988;29.172;2023-12-20T09:19:40;94611.41;;;-8.27;100.00
73103;BME280;61294;65.988;29.172;2023-12-20T09:22:06;94607.97;;;-8.31;100.00
73103;BME280;61294;65.988;29.172;2023-12-20T09:24:32;94615.63;;;-8.34;100.00
73103;BME280;61294;65.988;29.172;2023-12-20T09:26:58;94618.19;;;-8.34;100.00
73103;BME280;61294;65.988;29.172;2023-12-20T09:29:24;94625.00;;;-8.28;100.00
73103;BME280;61294;65.988;29.172;2023-12-20T09:31:50;94613.13;;;-8.23;100.00
73103;BME280;61294;65.988;29.172;2023-12-20T09:34:16;94625.00;;;-8.25;100.00
73103;BME280;61294;65.988;29.172;2023-12-20T09:36:45;94633.50;;;-8.34;100.00
73103;BME280;61294;65.988;29.172;2023-12-20T09:39:19;94642.00;;;-8.44;100.00
73103;BME280;61294;65.988;29.172;2023-12-20T09:41:52;94638.63;;;-8.45;100.00
73103;BME280;61294;65.988;29.172;2023-12-20T09:44:24;94621.53;;;-8.57;100.00
73103;BME280;61294;65.988;29.172;2023-12-20T09:46:50;94644.53;;;-8.49;100.00
73103;BME280;61294;65.988;29.172;2023-12-20T09:49:19;94627.47;;;-8.64;100.00
73103;BME280;61294;65.988;29.172;2023-12-20T09:51:54;94633.38;;;-8.76;100.00
73103;BME280;61294;65.988;29.172;2023-12-20T09:54:20;94655.50;;;-8.69;100.00
73103;BME280;61294;65.988;29.172;2023-12-20T09:56:47;94641.00;;;-8.76;100.00
73103;BME280;61294;65.988;29.172;2023-12-20T09:59:13;94672.47;;;-8.72;100.00
73103;BME280;61294;65.988;29.172;2023-12-20T10:01:43;94669.00;;;-8.83;100.00
73103;BME280;61294;65.988;29.172;2023-12-20T10:04:10;94674.06;;;-8.96;100.00
73103;BME280;61294;65.988;29.172;2023-12-20T10:06:41;94668.94;;;-9.00;100.00
73103;BME280;61294;65.988;29.172;2023-12-20T10:09:08;94683.44;;;-8.95;100.00
73103;BME280;61294;65.988;29.172;2023-12-20T10:11:40;94692.69;;;-9.05;100.00
73103;BME280;61294;65.988;29.172;2023-12-20T10:14:06;94681.50;;;-9.21;100.00
73103;BME280;61294;65.988;29.172;2023-12-20T10:16:33;94699.44;;;-9.11;100.00
73103;BME280;61294;65.988;29.172;2023-12-20T10:19:00;94623.47;;;-9.60;100.00
73103;BME280;61294;65.988;29.172;2023-12-20T10:21:30;94701.88;;;-9.24;100.00
73103;BME280;61294;65.988;29.172;2023-12-20T10:23:57;94704.41;;;-9.27;100.00
73103;BME280;61294;65.988;29.172;2023-12-20T10:26:26;94716.31;;;-9.29;100.00
73103;BME280;61294;65.988;29.172;2023-12-20T10:28:56;94715.44;;;-9.31;100.00
73103;BME280;61294;65.988;29.172;2023-12-20T10:31:32;94709.38;;;-9.45;100.00
73103;BME280;61294;65.988;29.172;2023-12-20T10:34:00;94670.06;;;-9.71;100.00
73103;BME280;61294;65.988;29.172;2023-12-20T10:36:28;94705.06;;;-9.52;100.00
73103;BME280;61294;65.988;29.172;2023-12-20T10:38:55;94725.38;;;-9.60;100.00
73103;BME280;61294;65.988;29.172;2023-12-20T10:41:30;94740.59;;;-9.65;100.00
73103;BME280;61294;65.988;29.172;2023-12-20T10:43:59;94740.56;;;-9.69;100.00
73103;BME280;61294;65.988;29.172;2023-12-20T10:46:29;94725.09;;;-9.86;100.00
73103;BME280;61294;65.988;29.172;2023-12-20T10:48:56;94762.50;;;-9.82;100.00
73103;BME280;61294;65.988;29.172;2023-12-20T10:51:23;94755.63;;;-9.90;100.00
73103;BME280;61294;65.988;29.172;2023-12-20T10:53:53;94768.41;;;-9.85;100.00
73103;BME280;61294;65.988;29.172;2023-12-20T10:56:19;94761.53;;;-9.91;100.00
73103;BME280;61294;65.988;29.172;2023-12-20T10:58:47;94749.53;;;-10.04;100.00
73103;BME280;61294;65.988;29.172;2023-12-20T11:01:16;94759.75;;;-9.98;100.00
73103;BME280;61294;65.988;29.172;2023-12-20T11:03:53;94767.38;;;-10.01;100.00
73103;BME280;61294;65.988;29.172;2023-12-20T11:06:24;94757.97;;;-10.07;100.00
73103;BME280;61294;65.988;29.172;2023-12-20T11:11:55;94763.81;;;-10.15;100.00
73103;BME280;61294;65.988;29.172;2023-12-20T11:14:51;94719.38;;;-10.44;100.00
73103;BME280;61294;65.988;29.172;2023-12-20T11:17:18;94726.88;;;-10.54;100.00
73103;BME280;61294;65.988;29.172;2023-12-20T11:22:31;94786.56;;;-10.26;100.00
73103;BME280;61294;65.988;29.172;2023-12-20T11:27:31;94800.06;;;-10.35;100.00
73103;BME280;61294;65.988;29.172;2023-12-20T11:29:58;94802.59;;;-10.35;100.00
73103;BME280;61294;65.988;29.172;2023-12-20T11:37:36;94802.34;;;-10.52;100.00
73103;BME280;61294;65.988;29.172;2023-12-20T11:40:07;94785.31;;;-10.59;100.00
73103;BME280;61294;65.988;29.172;2023-12-20T11:42:40;94807.31;;;-10.63;100.00
73103;BME280;61294;65.988;29.172;2023-12-20T11:45:18;94805.38;;;-10.78;100.00
73103;BME280;61294;65.988;29.172;2023-12-20T11:47:48;94825.97;;;-10.62;100.00
73103;BME280;61294;65.988;29.172;2023-12-20T11:50:19;94828.25;;;-10.78;100.00
73103;BME280;61294;65.988;29.172;2023-12-20T11:52:45;94835.78;;;-10.84;100.00
73103;BME280;61294;65.988;29.172;2023-12-20T11:55:11;94845.16;;;-10.81;100.00
73103;BME280;61294;65.988;29.172;2023-12-20T11:57:38;94822.94;;;-10.91;100.00
73103;BME280;61294;65.988;29.172;2023-12-20T12:00:05;94841.84;;;-10.77;100.00
73103;BME280;61294;65.988;29.172;2023-12-20T12:02:31;94846.94;;;-10.77;100.00
73103;BME280;61294;65.988;29.172;2023-12-20T12:04:59;94851.81;;;-10.88;100.00
73103;BME280;61294;65.988;29.172;2023-12-20T12:07:25;94843.19;;;-10.98;100.00
73103;BME280;61294;65.988;29.172;2023-12-20T12:09:51;94865.47;;;-10.83;100.00
73103;BME280;61294;65.988;29.172;2023-12-20T12:12:17;94868.81;;;-10.85;100.00
73103;BME280;61294;65.988;29.172;2023-12-20T12:14:45;94881.47;;;-10.90;100.00
73103;BME280;61294;65.988;29.172;2023-12-20T12:17:12;94883.19;;;-10.87;100.00
73103;BME280;61294;65.988;29.172;2023-12-20T12:19:39;94881.22;;;-11.04;100.00
73103;BME280;61294;65.988;29.172;2023-12-20T12:22:09;94889.88;;;-10.94;100.00
73103;BME280;61294;65.988;29.172;2023-12-20T12:24:43;94887.41;;;-10.89;100.00
73103;BME280;61294;65.988;29.172;2023-12-20T12:27:09;94893.94;;;-11.04;100.00
73103;BME280;61294;65.988;29.172;2023-12-20T12:29:36;94903.13;;;-11.11;100.00
73103;BME280;61294;65.988;29.172;2023-12-20T12:32:06;94898.84;;;-11.13;100.00
73103;BME280;61294;65.988;29.172;2023-12-20T12:34:33;94910.66;;;-11.15;100.00
73103;BME280;61294;65.988;29.172;2023-12-20T12:36:59;94901.06;;;-11.30;100.00
73103;BME280;61294;65.988;29.172;2023-12-20T12:39:25;94898.34;;;-11.41;100.00
73103;BME280;61294;65.988;29.172;2023-12-20T12:41:51;94888.84;;;-11.50;100.00
73103;BME280;61294;65.988;29.172;2023-12-20T12:44:17;94903.13;;;-11.55;100.00
73103;BME280;61294;65.988;29.172;2023-12-20T12:46:46;94920.09;;;-11.54;100.00
73103;BME280;61294;65.988;29.172;2023-12-20T12:49:13;94914.09;;;-11.57;100.00